Aérodrome :
LOGIN :

S'inscrire | Disclaimer

   EN    FR    IT 

 










Légende :    VFR   VFR Marginal   IFR   IFR Intensif   IFR Très Intensif
Visi : 
Plafond : 
>= 8 km
>= 3000ft
5 à 8 km
1000 à 3000 ft
1500m à 5 km
500 à 1000 ft
800 à 1500m
200 à 500 ft
< 800m
< 200 ft
Symboles :   Orages  Brouillard  Fortes neiges  Fortes précipitations  Vent > 20 kt
SIGMETs :   Divers  Orages  Givrage  Turbulence  Onde Orograph.  Cendres Volcan.







- Altitude de l'aérodrome : 3368 ft


LSGC - Les Eplatures

DERNIER METAR :
  • 281720Z 28003KT 230V310 CAVOK 11/02 Q1025

METARs EXPIRÉS :
  • 281650Z AUTO 32003KT 270V030 9999 NCD 13/02 Q1025
  • 281620Z 27004KT 210V330 CAVOK 13/03 Q1025
  • 281550Z 29003KT 230V350 9999 SCT047 SCT070 13/02 Q1025 WS R24
  • 281520Z 26005KT 240V300 9999 SCT047 SCT070 13/03 Q1025 WS R24
  • 281450Z VRB07KT 9999 SCT048 SCT070 14/03 Q1025 WS R24

TAF TAF LSGC
Valide du 28 à 15h jusqu'au 29 à 00h UTC


281425Z 2815/2824 24005KT 9999 SCT045
Pas de NOTAMs connus pour ce terrain.



MET'MAP, la Météo Aéronautique d'un coup d'oeil ! - Copyright ORBIFLY Décembre 2007 - Disclaimer

ORBIFLY MET'MAP TEAM :

Programmation & Développement : Alexandra Zaïnal
Conception & Développement : Baudouin d'Aumeries
Co-Programmation & Développement : Marc-Olivier Méhu
Soutien technique & logistique : Manuel Goepfert

Contact : metmap@orbifly.com




SOURCES & CREDITS :

   NOAA